sensor_id;sensor_type;location;lat;lon;timestamp;P1;durP1;ratioP1;P2;durP2;ratioP2
23449;SDS011;11897;45.438;12.128;2023-05-27T00:01:11;4.95;;;2.90;;
23449;SDS011;11897;45.438;12.128;2023-05-27T00:03:40;5.05;;;2.85;;
23449;SDS011;11897;45.438;12.128;2023-05-27T00:06:07;4.35;;;2.15;;
23449;SDS011;11897;45.438;12.128;2023-05-27T00:08:34;3.78;;;1.95;;
23449;SDS011;11897;45.438;12.128;2023-05-27T00:11:01;2.10;;;1.42;;
23449;SDS011;11897;45.438;12.128;2023-05-27T00:13:28;2.90;;;1.90;;
23449;SDS011;11897;45.438;12.128;2023-05-27T00:15:59;2.30;;;1.63;;
23449;SDS011;11897;45.438;12.128;2023-05-27T00:18:26;3.83;;;2.00;;
23449;SDS011;11897;45.438;12.128;2023-05-27T00:20:54;5.27;;;1.93;;
23449;SDS011;11897;45.438;12.128;2023-05-27T00:23:21;5.83;;;2.37;;
23449;SDS011;11897;45.438;12.128;2023-05-27T00:25:47;5.00;;;2.57;;
23449;SDS011;11897;45.438;12.128;2023-05-27T00:28:14;6.20;;;2.53;;
23449;SDS011;11897;45.438;12.128;2023-05-27T00:30:41;5.00;;;2.87;;
23449;SDS011;11897;45.438;12.128;2023-05-27T00:33:07;5.17;;;2.47;;
23449;SDS011;11897;45.438;12.128;2023-05-27T00:35:34;4.93;;;2.67;;
23449;SDS011;11897;45.438;12.128;2023-05-27T00:38:03;3.47;;;2.70;;
23449;SDS011;11897;45.438;12.128;2023-05-27T00:40:30;4.83;;;2.77;;
23449;SDS011;11897;45.438;12.128;2023-05-27T00:42:57;3.40;;;2.60;;
23449;SDS011;11897;45.438;12.128;2023-05-27T00:45:23;4.40;;;2.50;;
23449;SDS011;11897;45.438;12.128;2023-05-27T00:47:50;5.77;;;2.47;;
23449;SDS011;11897;45.438;12.128;2023-05-27T00:50:17;4.57;;;3.13;;
23449;SDS011;11897;45.438;12.128;2023-05-27T00:52:44;5.53;;;2.90;;
23449;SDS011;11897;45.438;12.128;2023-05-27T00:55:12;4.50;;;3.20;;
23449;SDS011;11897;45.438;12.128;2023-05-27T00:57:39;4.93;;;2.77;;
23449;SDS011;11897;45.438;12.128;2023-05-27T01:00:08;4.77;;;2.93;;
23449;SDS011;11897;45.438;12.128;2023-05-27T01:02:36;5.60;;;2.63;;
23449;SDS011;11897;45.438;12.128;2023-05-27T01:05:06;3.77;;;2.83;;
23449;SDS011;11897;45.438;12.128;2023-05-27T01:07:35;4.13;;;2.37;;
23449;SDS011;11897;45.438;12.128;2023-05-27T01:10:06;3.43;;;2.33;;
23449;SDS011;11897;45.438;12.128;2023-05-27T01:12:40;3.07;;;2.23;;
23449;SDS011;11897;45.438;12.128;2023-05-27T01:15:11;2.53;;;1.60;;
23449;SDS011;11897;45.438;12.128;2023-05-27T01:17:38;2.93;;;1.50;;
23449;SDS011;11897;45.438;12.128;2023-05-27T01:20:10;3.27;;;2.00;;
23449;SDS011;11897;45.438;12.128;2023-05-27T01:22:40;5.83;;;1.87;;
23449;SDS011;11897;45.438;12.128;2023-05-27T01:25:07;4.10;;;1.93;;
23449;SDS011;11897;45.438;12.128;2023-05-27T01:27:36;5.63;;;1.63;;
23449;SDS011;11897;45.438;12.128;2023-05-27T01:30:06;4.20;;;2.20;;
23449;SDS011;11897;45.438;12.128;2023-05-27T01:32:36;2.60;;;1.63;;
23449;SDS011;11897;45.438;12.128;2023-05-27T01:35:15;2.50;;;1.70;;
23449;SDS011;11897;45.438;12.128;2023-05-27T01:37:45;3.60;;;2.10;;
23449;SDS011;11897;45.438;12.128;2023-05-27T01:40:13;3.97;;;1.87;;
23449;SDS011;11897;45.438;12.128;2023-05-27T01:42:41;4.33;;;2.03;;
23449;SDS011;11897;45.438;12.128;2023-05-27T01:45:09;3.07;;;1.77;;
23449;SDS011;11897;45.438;12.128;2023-05-27T01:47:36;6.17;;;1.87;;
23449;SDS011;11897;45.438;12.128;2023-05-27T01:50:04;4.47;;;2.10;;
23449;SDS011;11897;45.438;12.128;2023-05-27T01:52:31;4.47;;;2.07;;
23449;SDS011;11897;45.438;12.128;2023-05-27T01:54:59;2.73;;;1.83;;
23449;SDS011;11897;45.438;12.128;2023-05-27T01:57:30;2.43;;;1.57;;
23449;SDS011;11897;45.438;12.128;2023-05-27T01:59:58;3.47;;;1.90;;
23449;SDS011;11897;45.438;12.128;2023-05-27T02:02:25;4.50;;;2.07;;
23449;SDS011;11897;45.438;12.128;2023-05-27T02:04:52;5.83;;;1.90;;
23449;SDS011;11897;45.438;12.128;2023-05-27T02:07:19;4.60;;;1.80;;
23449;SDS011;11897;45.438;12.128;2023-05-27T02:09:48;3.70;;;1.70;;
23449;SDS011;11897;45.438;12.128;2023-05-27T02:12:16;3.00;;;1.70;;
23449;SDS011;11897;45.438;12.128;2023-05-27T02:14:42;2.77;;;1.50;;
23449;SDS011;11897;45.438;12.128;2023-05-27T02:17:10;2.90;;;1.80;;
23449;SDS011;11897;45.438;12.128;2023-05-27T02:19:37;2.90;;;2.00;;
23449;SDS011;11897;45.438;12.128;2023-05-27T02:22:09;15.73;;;2.10;;
23449;SDS011;11897;45.438;12.128;2023-05-27T02:24:36;2.33;;;1.80;;
23449;SDS011;11897;45.438;12.128;2023-05-27T02:27:03;2.47;;;1.57;;
23449;SDS011;11897;45.438;12.128;2023-05-27T02:29:32;2.87;;;2.10;;
23449;SDS011;11897;45.438;12.128;2023-05-27T02:31:59;2.43;;;1.90;;
23449;SDS011;11897;45.438;12.128;2023-05-27T02:34:26;2.87;;;1.33;;
23449;SDS011;11897;45.438;12.128;2023-05-27T02:36:52;3.27;;;1.47;;
23449;SDS011;11897;45.438;12.128;2023-05-27T02:39:21;4.27;;;2.10;;
23449;SDS011;11897;45.438;12.128;2023-05-27T02:41:47;5.97;;;1.70;;
23449;SDS011;11897;45.438;12.128;2023-05-27T02:44:15;2.30;;;1.60;;
23449;SDS011;11897;45.438;12.128;2023-05-27T02:46:44;3.37;;;2.00;;
23449;SDS011;11897;45.438;12.128;2023-05-27T02:49:10;2.63;;;1.70;;
23449;SDS011;11897;45.438;12.128;2023-05-27T02:51:37;3.93;;;1.63;;
23449;SDS011;11897;45.438;12.128;2023-05-27T02:54:09;3.87;;;2.13;;
23449;SDS011;11897;45.438;12.128;2023-05-27T02:56:37;4.23;;;2.33;;
23449;SDS011;11897;45.438;12.128;2023-05-27T02:59:04;3.83;;;2.00;;
23449;SDS011;11897;45.438;12.128;2023-05-27T03:01:31;5.67;;;2.30;;
23449;SDS011;11897;45.438;12.128;2023-05-27T03:03:59;4.60;;;2.40;;
23449;SDS011;11897;45.438;12.128;2023-05-27T03:06:26;4.23;;;1.93;;
23449;SDS011;11897;45.438;12.128;2023-05-27T03:08:53;3.70;;;1.53;;
23449;SDS011;11897;45.438;12.128;2023-05-27T03:11:20;2.17;;;1.67;;
23449;SDS011;11897;45.438;12.128;2023-05-27T03:13:47;3.10;;;2.13;;
23449;SDS011;11897;45.438;12.128;2023-05-27T03:16:13;7.90;;;2.40;;
23449;SDS011;11897;45.438;12.128;2023-05-27T03:18:40;3.70;;;2.23;;
23449;SDS011;11897;45.438;12.128;2023-05-27T03:21:08;10.50;;;2.70;;
23449;SDS011;11897;45.438;12.128;2023-05-27T03:23:35;12.10;;;3.10;;
23449;SDS011;11897;45.438;12.128;2023-05-27T03:26:02;4.80;;;2.80;;
23449;SDS011;11897;45.438;12.128;2023-05-27T03:28:30;4.60;;;2.63;;
23449;SDS011;11897;45.438;12.128;2023-05-27T03:30:59;4.87;;;2.53;;
23449;SDS011;11897;45.438;12.128;2023-05-27T03:33:52;6.73;;;3.00;;
23449;SDS011;11897;45.438;12.128;2023-05-27T03:36:20;4.97;;;2.97;;
23449;SDS011;11897;45.438;12.128;2023-05-27T03:38:48;4.37;;;2.70;;
23449;SDS011;11897;45.438;12.128;2023-05-27T03:41:15;4.40;;;2.30;;
23449;SDS011;11897;45.438;12.128;2023-05-27T03:43:42;7.20;;;2.87;;
23449;SDS011;11897;45.438;12.128;2023-05-27T03:46:10;3.43;;;2.43;;
23449;SDS011;11897;45.438;12.128;2023-05-27T03:48:37;3.93;;;2.50;;
23449;SDS011;11897;45.438;12.128;2023-05-27T03:51:04;3.57;;;2.03;;
23449;SDS011;11897;45.438;12.128;2023-05-27T03:53:32;4.23;;;2.50;;
23449;SDS011;11897;45.438;12.128;2023-05-27T03:55:59;3.93;;;2.17;;
23449;SDS011;11897;45.438;12.128;2023-05-27T03:58:25;3.13;;;2.07;;
23449;SDS011;11897;45.438;12.128;2023-05-27T04:00:53;6.83;;;2.07;;
23449;SDS011;11897;45.438;12.128;2023-05-27T04:03:20;7.37;;;2.60;;
23449;SDS011;11897;45.438;12.128;2023-05-27T04:05:48;6.23;;;2.30;;
23449;SDS011;11897;45.438;12.128;2023-05-27T04:08:17;3.33;;;2.20;;
23449;SDS011;11897;45.438;12.128;2023-05-27T04:10:45;5.37;;;2.50;;
23449;SDS011;11897;45.438;12.128;2023-05-27T04:13:12;3.83;;;1.83;;
23449;SDS011;11897;45.438;12.128;2023-05-27T04:15:49;5.80;;;2.63;;
23449;SDS011;11897;45.438;12.128;2023-05-27T04:18:15;10.57;;;3.13;;
23449;SDS011;11897;45.438;12.128;2023-05-27T04:20:42;5.47;;;2.33;;
23449;SDS011;11897;45.438;12.128;2023-05-27T04:23:14;5.70;;;1.93;;
23449;SDS011;11897;45.438;12.128;2023-05-27T04:25:41;4.13;;;1.97;;
23449;SDS011;11897;45.438;12.128;2023-05-27T04:28:12;2.40;;;1.80;;
23449;SDS011;11897;45.438;12.128;2023-05-27T04:30:44;2.97;;;1.83;;
23449;SDS011;11897;45.438;12.128;2023-05-27T04:33:31;10.73;;;2.37;;
23449;SDS011;11897;45.438;12.128;2023-05-27T04:35:58;6.23;;;2.73;;
23449;SDS011;11897;45.438;12.128;2023-05-27T04:38:28;6.93;;;2.70;;
23449;SDS011;11897;45.438;12.128;2023-05-27T04:41:03;5.03;;;2.33;;
23449;SDS011;11897;45.438;12.128;2023-05-27T04:43:49;3.77;;;1.97;;
23449;SDS011;11897;45.438;12.128;2023-05-27T04:46:22;1.70;;;1.40;;
23449;SDS011;11897;45.438;12.128;2023-05-27T04:48:50;4.93;;;1.63;;
23449;SDS011;11897;45.438;12.128;2023-05-27T04:51:19;6.30;;;1.83;;
23449;SDS011;11897;45.438;12.128;2023-05-27T04:53:49;3.27;;;2.20;;
23449;SDS011;11897;45.438;12.128;2023-05-27T04:56:19;2.97;;;1.83;;
23449;SDS011;11897;45.438;12.128;2023-05-27T04:58:50;2.03;;;1.83;;
23449;SDS011;11897;45.438;12.128;2023-05-27T05:01:22;3.30;;;2.43;;
23449;SDS011;11897;45.438;12.128;2023-05-27T05:04:06;3.30;;;2.20;;
23449;SDS011;11897;45.438;12.128;2023-05-27T05:06:43;5.20;;;2.50;;
23449;SDS011;11897;45.438;12.128;2023-05-27T05:09:10;3.27;;;2.20;;
23449;SDS011;11897;45.438;12.128;2023-05-27T05:11:38;4.33;;;2.33;;
23449;SDS011;11897;45.438;12.128;2023-05-27T05:14:08;2.30;;;1.70;;
23449;SDS011;11897;45.438;12.128;2023-05-27T05:16:34;3.57;;;2.10;;
23449;SDS011;11897;45.438;12.128;2023-05-27T05:19:02;5.77;;;2.00;;
23449;SDS011;11897;45.438;12.128;2023-05-27T05:21:33;4.90;;;2.60;;
23449;SDS011;11897;45.438;12.128;2023-05-27T05:24:04;5.27;;;1.90;;
23449;SDS011;11897;45.438;12.128;2023-05-27T05:26:31;4.30;;;2.30;;
23449;SDS011;11897;45.438;12.128;2023-05-27T05:29:02;7.00;;;2.30;;
23449;SDS011;11897;45.438;12.128;2023-05-27T05:31:30;3.23;;;2.10;;
23449;SDS011;11897;45.438;12.128;2023-05-27T05:34:01;2.63;;;1.70;;
23449;SDS011;11897;45.438;12.128;2023-05-27T05:36:31;3.23;;;2.30;;
23449;SDS011;11897;45.438;12.128;2023-05-27T05:39:01;5.35;;;2.60;;
23449;SDS011;11897;45.438;12.128;2023-05-27T05:41:29;5.82;;;2.38;;
23449;SDS011;11897;45.438;12.128;2023-05-27T05:43:55;3.50;;;2.03;;
23449;SDS011;11897;45.438;12.128;2023-05-27T05:46:22;4.75;;;2.22;;
23449;SDS011;11897;45.438;12.128;2023-05-27T05:48:51;3.63;;;2.38;;
23449;SDS011;11897;45.438;12.128;2023-05-27T05:51:25;4.32;;;2.65;;
23449;SDS011;11897;45.438;12.128;2023-05-27T05:53:56;4.28;;;2.50;;
23449;SDS011;11897;45.438;12.128;2023-05-27T05:56:23;4.32;;;2.60;;
23449;SDS011;11897;45.438;12.128;2023-05-27T05:58:52;3.08;;;2.45;;
23449;SDS011;11897;45.438;12.128;2023-05-27T06:01:20;3.30;;;2.38;;
23449;SDS011;11897;45.438;12.128;2023-05-27T06:03:46;2.55;;;2.08;;
23449;SDS011;11897;45.438;12.128;2023-05-27T06:06:29;4.53;;;2.88;;
23449;SDS011;11897;45.438;12.128;2023-05-27T06:09:22;4.80;;;2.50;;
23449;SDS011;11897;45.438;12.128;2023-05-27T06:11:53;4.05;;;2.40;;
23449;SDS011;11897;45.438;12.128;2023-05-27T06:14:20;5.93;;;3.03;;
23449;SDS011;11897;45.438;12.128;2023-05-27T06:16:48;5.43;;;2.53;;
23449;SDS011;11897;45.438;12.128;2023-05-27T06:19:15;3.58;;;2.40;;
23449;SDS011;11897;45.438;12.128;2023-05-27T06:21:43;3.53;;;2.42;;
23449;SDS011;11897;45.438;12.128;2023-05-27T06:24:21;4.07;;;2.60;;
23449;SDS011;11897;45.438;12.128;2023-05-27T06:26:55;3.13;;;2.30;;
23449;SDS011;11897;45.438;12.128;2023-05-27T06:29:23;4.20;;;2.38;;
23449;SDS011;11897;45.438;12.128;2023-05-27T06:31:49;2.20;;;1.80;;
23449;SDS011;11897;45.438;12.128;2023-05-27T06:34:16;2.30;;;2.05;;
23449;SDS011;11897;45.438;12.128;2023-05-27T06:36:45;3.40;;;2.30;;
23449;SDS011;11897;45.438;12.128;2023-05-27T06:39:17;3.25;;;2.38;;
23449;SDS011;11897;45.438;12.128;2023-05-27T06:41:44;5.00;;;3.08;;
23449;SDS011;11897;45.438;12.128;2023-05-27T06:44:30;4.93;;;2.35;;
23449;SDS011;11897;45.438;12.128;2023-05-27T06:47:08;4.63;;;2.50;;
23449;SDS011;11897;45.438;12.128;2023-05-27T06:49:36;3.53;;;2.45;;
23449;SDS011;11897;45.438;12.128;2023-05-27T06:52:06;3.08;;;2.50;;
23449;SDS011;11897;45.438;12.128;2023-05-27T06:54:46;4.65;;;2.58;;
23449;SDS011;11897;45.438;12.128;2023-05-27T06:57:39;5.53;;;2.90;;
23449;SDS011;11897;45.438;12.128;2023-05-27T07:00:12;3.50;;;2.55;;
23449;SDS011;11897;45.438;12.128;2023-05-27T07:02:54;4.55;;;2.40;;
23449;SDS011;11897;45.438;12.128;2023-05-27T07:05:21;3.42;;;2.60;;
23449;SDS011;11897;45.438;12.128;2023-05-27T07:07:49;4.07;;;2.85;;
23449;SDS011;11897;45.438;12.128;2023-05-27T07:10:16;3.95;;;2.17;;
23449;SDS011;11897;45.438;12.128;2023-05-27T07:12:42;3.53;;;2.42;;
23449;SDS011;11897;45.438;12.128;2023-05-27T07:15:35;4.05;;;2.53;;
23449;SDS011;11897;45.438;12.128;2023-05-27T07:18:05;4.10;;;2.72;;
23449;SDS011;11897;45.438;12.128;2023-05-27T07:20:33;4.03;;;2.80;;
23449;SDS011;11897;45.438;12.128;2023-05-27T07:23:08;3.42;;;2.28;;
23449;SDS011;11897;45.438;12.128;2023-05-27T07:25:38;4.65;;;2.70;;
23449;SDS011;11897;45.438;12.128;2023-05-27T07:28:06;7.72;;;3.20;;
23449;SDS011;11897;45.438;12.128;2023-05-27T07:30:42;7.75;;;2.55;;
23449;SDS011;11897;45.438;12.128;2023-05-27T07:33:11;2.85;;;2.40;;
23449;SDS011;11897;45.438;12.128;2023-05-27T07:35:38;3.58;;;2.30;;
23449;SDS011;11897;45.438;12.128;2023-05-27T07:38:08;3.13;;;2.63;;
23449;SDS011;11897;45.438;12.128;2023-05-27T07:40:37;3.95;;;2.42;;
23449;SDS011;11897;45.438;12.128;2023-05-27T07:43:03;5.13;;;2.08;;
23449;SDS011;11897;45.438;12.128;2023-05-27T07:45:32;2.85;;;2.50;;
23449;SDS011;11897;45.438;12.128;2023-05-27T07:47:59;2.72;;;2.25;;
23449;SDS011;11897;45.438;12.128;2023-05-27T07:50:26;4.25;;;2.50;;
23449;SDS011;11897;45.438;12.128;2023-05-27T07:53:09;5.45;;;2.53;;
23449;SDS011;11897;45.438;12.128;2023-05-27T07:55:38;3.92;;;2.42;;
23449;SDS011;11897;45.438;12.128;2023-05-27T07:58:05;4.45;;;2.72;;
23449;SDS011;11897;45.438;12.128;2023-05-27T08:00:45;4.82;;;2.60;;
23449;SDS011;11897;45.438;12.128;2023-05-27T08:03:12;3.22;;;2.30;;
23449;SDS011;11897;45.438;12.128;2023-05-27T08:05:58;3.13;;;2.10;;
23449;SDS011;11897;45.438;12.128;2023-05-27T08:08:59;4.57;;;2.80;;
23449;SDS011;11897;45.438;12.128;2023-05-27T08:11:39;6.57;;;2.90;;
23449;SDS011;11897;45.438;12.128;2023-05-27T08:14:45;4.57;;;2.65;;
23449;SDS011;11897;45.438;12.128;2023-05-27T08:17:50;2.97;;;2.33;;
23449;SDS011;11897;45.438;12.128;2023-05-27T08:20:21;3.53;;;2.40;;
23449;SDS011;11897;45.438;12.128;2023-05-27T08:22:54;2.67;;;2.25;;
23449;SDS011;11897;45.438;12.128;2023-05-27T08:25:40;5.03;;;2.50;;
23449;SDS011;11897;45.438;12.128;2023-05-27T08:28:26;4.03;;;2.50;;
23449;SDS011;11897;45.438;12.128;2023-05-27T08:31:16;3.58;;;2.58;;
23449;SDS011;11897;45.438;12.128;2023-05-27T08:34:02;3.10;;;2.38;;
23449;SDS011;11897;45.438;12.128;2023-05-27T08:36:30;3.15;;;2.42;;
23449;SDS011;11897;45.438;12.128;2023-05-27T08:38:58;4.00;;;2.75;;
23449;SDS011;11897;45.438;12.128;2023-05-27T08:41:31;5.05;;;2.70;;
23449;SDS011;11897;45.438;12.128;2023-05-27T08:43:59;3.92;;;3.03;;
23449;SDS011;11897;45.438;12.128;2023-05-27T08:46:26;3.50;;;2.40;;
23449;SDS011;11897;45.438;12.128;2023-05-27T08:48:53;2.85;;;2.38;;
23449;SDS011;11897;45.438;12.128;2023-05-27T08:51:21;3.42;;;2.97;;
23449;SDS011;11897;45.438;12.128;2023-05-27T08:53:50;4.28;;;2.60;;
23449;SDS011;11897;45.438;12.128;2023-05-27T08:56:18;4.45;;;2.70;;
23449;SDS011;11897;45.438;12.128;2023-05-27T08:58:49;3.80;;;2.72;;
23449;SDS011;11897;45.438;12.128;2023-05-27T09:01:19;4.00;;;2.67;;
23449;SDS011;11897;45.438;12.128;2023-05-27T09:03:47;4.35;;;2.88;;
23449;SDS011;11897;45.438;12.128;2023-05-27T09:06:14;4.53;;;2.70;;
23449;SDS011;11897;45.438;12.128;2023-05-27T09:08:41;3.92;;;2.45;;
23449;SDS011;11897;45.438;12.128;2023-05-27T09:11:07;5.68;;;3.05;;
23449;SDS011;11897;45.438;12.128;2023-05-27T09:13:36;5.30;;;3.15;;
23449;SDS011;11897;45.438;12.128;2023-05-27T09:16:05;6.55;;;2.70;;
23449;SDS011;11897;45.438;12.128;2023-05-27T09:18:35;4.63;;;2.72;;
23449;SDS011;11897;45.438;12.128;2023-05-27T09:21:03;3.47;;;3.08;;
23449;SDS011;11897;45.438;12.128;2023-05-27T09:23:36;5.72;;;2.70;;
23449;SDS011;11897;45.438;12.128;2023-05-27T09:26:06;4.32;;;2.67;;
23449;SDS011;11897;45.438;12.128;2023-05-27T09:28:34;4.45;;;2.97;;
23449;SDS011;11897;45.438;12.128;2023-05-27T09:31:02;5.75;;;2.67;;
23449;SDS011;11897;45.438;12.128;2023-05-27T09:33:32;8.82;;;2.92;;
23449;SDS011;11897;45.438;12.128;2023-05-27T09:35:59;5.68;;;2.88;;
23449;SDS011;11897;45.438;12.128;2023-05-27T09:38:28;8.20;;;3.13;;
23449;SDS011;11897;45.438;12.128;2023-05-27T09:40:54;4.10;;;2.75;;
23449;SDS011;11897;45.438;12.128;2023-05-27T09:43:24;4.05;;;2.60;;
23449;SDS011;11897;45.438;12.128;2023-05-27T09:45:51;4.72;;;2.83;;
23449;SDS011;11897;45.438;12.128;2023-05-27T09:48:18;4.50;;;2.95;;
23449;SDS011;11897;45.438;12.128;2023-05-27T09:50:47;4.32;;;2.90;;
23449;SDS011;11897;45.438;12.128;2023-05-27T09:53:14;4.47;;;2.50;;
23449;SDS011;11897;45.438;12.128;2023-05-27T09:55:42;5.15;;;3.20;;
23449;SDS011;11897;45.438;12.128;2023-05-27T09:58:09;5.93;;;3.22;;
23449;SDS011;11897;45.438;12.128;2023-05-27T10:00:36;4.90;;;2.90;;
23449;SDS011;11897;45.438;12.128;2023-05-27T10:03:05;4.00;;;2.88;;
23449;SDS011;11897;45.438;12.128;2023-05-27T10:05:32;5.28;;;3.03;;
23449;SDS011;11897;45.438;12.128;2023-05-27T10:08:02;5.55;;;2.95;;
23449;SDS011;11897;45.438;12.128;2023-05-27T10:10:29;4.53;;;3.00;;
23449;SDS011;11897;45.438;12.128;2023-05-27T10:12:58;5.40;;;3.20;;
23449;SDS011;11897;45.438;12.128;2023-05-27T10:15:29;5.45;;;3.00;;
23449;SDS011;11897;45.438;12.128;2023-05-27T10:17:58;3.95;;;2.75;;
23449;SDS011;11897;45.438;12.128;2023-05-27T10:20:29;5.60;;;3.13;;
23449;SDS011;11897;45.438;12.128;2023-05-27T10:22:57;6.68;;;3.30;;
23449;SDS011;11897;45.438;12.128;2023-05-27T10:25:36;5.57;;;2.97;;
23449;SDS011;11897;45.438;12.128;2023-05-27T10:28:06;3.05;;;2.47;;
23449;SDS011;11897;45.438;12.128;2023-05-27T10:30:43;7.35;;;2.85;;
23449;SDS011;11897;45.438;12.128;2023-05-27T10:33:12;4.38;;;3.17;;
23449;SDS011;11897;45.438;12.128;2023-05-27T10:35:42;4.32;;;2.75;;
23449;SDS011;11897;45.438;12.128;2023-05-27T10:38:15;5.63;;;3.42;;
23449;SDS011;11897;45.438;12.128;2023-05-27T10:40:45;4.65;;;3.22;;
23449;SDS011;11897;45.438;12.128;2023-05-27T10:43:16;7.32;;;3.15;;
23449;SDS011;11897;45.438;12.128;2023-05-27T10:45:43;6.53;;;2.85;;
23449;SDS011;11897;45.438;12.128;2023-05-27T10:48:17;4.82;;;3.35;;
23449;SDS011;11897;45.438;12.128;2023-05-27T10:50:50;5.97;;;3.10;;
23449;SDS011;11897;45.438;12.128;2023-05-27T10:53:18;7.68;;;3.00;;
23449;SDS011;11897;45.438;12.128;2023-05-27T10:55:46;5.72;;;3.00;;
23449;SDS011;11897;45.438;12.128;2023-05-27T10:58:14;6.85;;;3.08;;
23449;SDS011;11897;45.438;12.128;2023-05-27T11:00:41;6.18;;;3.22;;
23449;SDS011;11897;45.438;12.128;2023-05-27T11:03:15;4.53;;;3.72;;
23449;SDS011;11897;45.438;12.128;2023-05-27T11:05:42;4.97;;;3.58;;
23449;SDS011;11897;45.438;12.128;2023-05-27T11:08:11;4.57;;;3.50;;
23449;SDS011;11897;45.438;12.128;2023-05-27T11:10:39;4.88;;;3.28;;
23449;SDS011;11897;45.438;12.128;2023-05-27T11:13:07;4.53;;;3.10;;
23449;SDS011;11897;45.438;12.128;2023-05-27T11:15:34;7.07;;;3.40;;
23449;SDS011;11897;45.438;12.128;2023-05-27T11:18:01;7.43;;;4.47;;
23449;SDS011;11897;45.438;12.128;2023-05-27T11:20:33;6.80;;;4.07;;
23449;SDS011;11897;45.438;12.128;2023-05-27T11:23:00;5.28;;;3.67;;
23449;SDS011;11897;45.438;12.128;2023-05-27T11:25:27;4.50;;;3.25;;
23449;SDS011;11897;45.438;12.128;2023-05-27T11:27:53;5.47;;;3.47;;
23449;SDS011;11897;45.438;12.128;2023-05-27T11:30:24;4.47;;;2.95;;
23449;SDS011;11897;45.438;12.128;2023-05-27T11:32:52;5.20;;;3.65;;
23449;SDS011;11897;45.438;12.128;2023-05-27T11:35:21;5.68;;;3.80;;
23449;SDS011;11897;45.438;12.128;2023-05-27T11:37:49;6.28;;;3.40;;
23449;SDS011;11897;45.438;12.128;2023-05-27T11:40:16;4.13;;;3.40;;
23449;SDS011;11897;45.438;12.128;2023-05-27T11:42:43;6.00;;;3.42;;
23449;SDS011;11897;45.438;12.128;2023-05-27T11:45:14;3.78;;;3.10;;
23449;SDS011;11897;45.438;12.128;2023-05-27T11:47:42;4.10;;;3.15;;
23449;SDS011;11897;45.438;12.128;2023-05-27T11:50:09;5.47;;;3.50;;
23449;SDS011;11897;45.438;12.128;2023-05-27T11:52:46;5.45;;;3.38;;
23449;SDS011;11897;45.438;12.128;2023-05-27T11:55:13;5.70;;;3.55;;
23449;SDS011;11897;45.438;12.128;2023-05-27T11:57:40;7.18;;;3.47;;
23449;SDS011;11897;45.438;12.128;2023-05-27T12:00:08;6.07;;;4.25;;
23449;SDS011;11897;45.438;12.128;2023-05-27T12:02:34;6.28;;;3.25;;
23449;SDS011;11897;45.438;12.128;2023-05-27T12:05:03;5.68;;;3.60;;
23449;SDS011;11897;45.438;12.128;2023-05-27T12:07:33;5.82;;;3.35;;
23449;SDS011;11897;45.438;12.128;2023-05-27T12:10:00;5.38;;;3.90;;
23449;SDS011;11897;45.438;12.128;2023-05-27T12:12:31;5.18;;;3.65;;
23449;SDS011;11897;45.438;12.128;2023-05-27T12:14:59;5.05;;;3.72;;
23449;SDS011;11897;45.438;12.128;2023-05-27T12:17:27;5.63;;;3.55;;
23449;SDS011;11897;45.438;12.128;2023-05-27T12:19:54;4.82;;;3.45;;
23449;SDS011;11897;45.438;12.128;2023-05-27T12:22:22;6.18;;;4.05;;
23449;SDS011;11897;45.438;12.128;2023-05-27T12:24:49;5.80;;;4.05;;
23449;SDS011;11897;45.438;12.128;2023-05-27T12:27:17;6.38;;;4.28;;
23449;SDS011;11897;45.438;12.128;2023-05-27T12:29:44;6.25;;;3.90;;
23449;SDS011;11897;45.438;12.128;2023-05-27T12:32:11;8.20;;;4.53;;
23449;SDS011;11897;45.438;12.128;2023-05-27T12:34:38;7.07;;;4.07;;
23449;SDS011;11897;45.438;12.128;2023-05-27T12:37:05;4.53;;;3.58;;
23449;SDS011;11897;45.438;12.128;2023-05-27T12:39:33;5.68;;;4.38;;
23449;SDS011;11897;45.438;12.128;2023-05-27T12:41:59;6.13;;;4.60;;
23449;SDS011;11897;45.438;12.128;2023-05-27T12:44:27;6.95;;;4.30;;
23449;SDS011;11897;45.438;12.128;2023-05-27T12:46:53;6.43;;;4.30;;
23449;SDS011;11897;45.438;12.128;2023-05-27T12:49:21;5.88;;;3.58;;
23449;SDS011;11897;45.438;12.128;2023-05-27T12:51:49;5.60;;;4.22;;
23449;SDS011;11897;45.438;12.128;2023-05-27T12:54:17;8.27;;;4.47;;
23449;SDS011;11897;45.438;12.128;2023-05-27T12:56:48;7.00;;;4.43;;
23449;SDS011;11897;45.438;12.128;2023-05-27T12:59:15;6.45;;;4.30;;
23449;SDS011;11897;45.438;12.128;2023-05-27T13:01:41;6.53;;;4.40;;
23449;SDS011;11897;45.438;12.128;2023-05-27T13:04:08;7.45;;;4.00;;
23449;SDS011;11897;45.438;12.128;2023-05-27T13:06:35;4.88;;;4.13;;
23449;SDS011;11897;45.438;12.128;2023-05-27T13:09:02;5.40;;;3.75;;
23449;SDS011;11897;45.438;12.128;2023-05-27T13:11:29;9.20;;;3.70;;
23449;SDS011;11897;45.438;12.128;2023-05-27T13:13:58;4.93;;;3.67;;
23449;SDS011;11897;45.438;12.128;2023-05-27T13:16:24;5.07;;;3.60;;
23449;SDS011;11897;45.438;12.128;2023-05-27T13:18:51;6.88;;;4.20;;
23449;SDS011;11897;45.438;12.128;2023-05-27T13:21:17;5.10;;;4.00;;
23449;SDS011;11897;45.438;12.128;2023-05-27T13:23:44;4.10;;;3.50;;
23449;SDS011;11897;45.438;12.128;2023-05-27T13:26:11;5.10;;;3.65;;
23449;SDS011;11897;45.438;12.128;2023-05-27T13:28:39;16.15;;;3.75;;
23449;SDS011;11897;45.438;12.128;2023-05-27T13:31:09;7.40;;;3.75;;
23449;SDS011;11897;45.438;12.128;2023-05-27T13:33:37;7.82;;;4.00;;
23449;SDS011;11897;45.438;12.128;2023-05-27T13:36:05;4.53;;;3.03;;
23449;SDS011;11897;45.438;12.128;2023-05-27T13:38:32;5.22;;;4.10;;
23449;SDS011;11897;45.438;12.128;2023-05-27T13:41:02;4.35;;;3.50;;
23449;SDS011;11897;45.438;12.128;2023-05-27T13:43:33;6.40;;;4.15;;
23449;SDS011;11897;45.438;12.128;2023-05-27T13:46:00;7.30;;;4.47;;
23449;SDS011;11897;45.438;12.128;2023-05-27T13:48:28;6.38;;;4.28;;
23449;SDS011;11897;45.438;12.128;2023-05-27T13:50:55;5.53;;;4.13;;
23449;SDS011;11897;45.438;12.128;2023-05-27T13:53:22;7.03;;;4.25;;
23449;SDS011;11897;45.438;12.128;2023-05-27T13:55:48;4.97;;;3.95;;
23449;SDS011;11897;45.438;12.128;2023-05-27T13:58:15;7.63;;;3.58;;
23449;SDS011;11897;45.438;12.128;2023-05-27T14:00:43;11.10;;;3.67;;
23449;SDS011;11897;45.438;12.128;2023-05-27T14:03:09;7.20;;;3.88;;
23449;SDS011;11897;45.438;12.128;2023-05-27T14:05:37;9.48;;;3.80;;
23449;SDS011;11897;45.438;12.128;2023-05-27T14:08:04;5.53;;;3.97;;
23449;SDS011;11897;45.438;12.128;2023-05-27T14:10:33;7.68;;;3.72;;
23449;SDS011;11897;45.438;12.128;2023-05-27T14:13:00;4.72;;;3.60;;
23449;SDS011;11897;45.438;12.128;2023-05-27T14:15:28;6.05;;;3.47;;
23449;SDS011;11897;45.438;12.128;2023-05-27T14:17:54;4.50;;;3.30;;
23449;SDS011;11897;45.438;12.128;2023-05-27T14:20:21;4.95;;;3.65;;
23449;SDS011;11897;45.438;12.128;2023-05-27T14:22:49;4.93;;;3.60;;
23449;SDS011;11897;45.438;12.128;2023-05-27T14:25:16;5.20;;;3.70;;
23449;SDS011;11897;45.438;12.128;2023-05-27T14:27:46;9.00;;;3.97;;
23449;SDS011;11897;45.438;12.128;2023-05-27T14:30:13;13.60;;;3.92;;
23449;SDS011;11897;45.438;12.128;2023-05-27T14:32:40;6.30;;;4.05;;
23449;SDS011;11897;45.438;12.128;2023-05-27T14:35:08;6.45;;;4.00;;
23449;SDS011;11897;45.438;12.128;2023-05-27T14:37:35;9.90;;;4.93;;
23449;SDS011;11897;45.438;12.128;2023-05-27T14:40:04;6.90;;;4.20;;
23449;SDS011;11897;45.438;12.128;2023-05-27T14:42:32;7.47;;;3.85;;
23449;SDS011;11897;45.438;12.128;2023-05-27T14:44:59;5.53;;;3.58;;
23449;SDS011;11897;45.438;12.128;2023-05-27T14:47:25;5.43;;;3.40;;